Time;durP1;ratioP1;P1;durP2;ratioP2;P2;SDS_P1;SDS_P2;PMS_P1;PMS_P2;Temp;Humidity;BMP_temperature;BMP_pressure;BME280_temperature;BME280_humidity;BME280_pressure;Samples;Min_cycle;Max_cycle;Signal;HPM_P1;HPM_P2
2022/08/16 00:02:00;;;;;;;4.97;4.47;;;18.10;99.90;;;;;;4999492;28;20503;-79
2022/08/16 00:04:27;;;;;;;5.40;4.10;;;18.20;99.90;;;;;;5012838;28;20457;-79
2022/08/16 00:06:52;;;;;;;4.90;4.03;;;18.20;99.90;;;;;;4994656;28;20855;-81
2022/08/16 00:09:18;;;;;;;5.13;4.00;;;18.30;99.90;;;;;;4978546;28;20435;-81
2022/08/16 00:11:45;;;;;;;5.77;3.70;;;18.40;99.90;;;;;;4994578;28;20213;-81
2022/08/16 00:14:14;;;;;;;5.03;4.20;;;18.40;99.90;;;;;;4995994;28;20214;-80
2022/08/16 00:16:40;;;;;;;5.40;3.47;;;18.40;99.90;;;;;;5015275;28;20446;-80
2022/08/16 00:19:06;;;;;;;4.90;3.67;;;18.40;99.90;;;;;;4984565;28;20424;-80
2022/08/16 00:21:33;;;;;;;5.87;3.20;;;18.40;99.90;;;;;;5003998;28;21184;-80
2022/08/16 00:23:59;;;;;;;7.70;3.80;;;18.30;99.90;;;;;;5000254;28;20478;-80
2022/08/16 00:26:25;;;;;;;5.40;4.10;;;18.20;99.90;;;;;;5000307;28;20419;-79
2022/08/16 00:28:51;;;;;;;4.13;3.73;;;18.30;99.90;;;;;;5018271;28;20414;-80
2022/08/16 00:31:17;;;;;;;14.17;4.57;;;18.20;99.90;;;;;;5000133;28;20458;-80
2022/08/16 00:33:43;;;;;;;4.83;3.60;;;18.20;99.90;;;;;;5017836;28;20189;-80
2022/08/16 00:36:08;;;;;;;9.07;3.70;;;18.10;99.90;;;;;;5000004;28;20921;-79
2022/08/16 00:38:34;;;;;;;9.90;5.30;;;18.20;99.90;;;;;;5017842;28;20212;-79
2022/08/16 00:41:02;;;;;;;6.30;4.20;;;18.20;99.90;;;;;;5018057;28;20490;-79
2022/08/16 00:43:33;;;;;;;6.10;4.37;;;18.20;99.90;;;;;;4983223;28;20192;-79
2022/08/16 00:46:28;;;;;;;6.53;4.10;;;18.00;99.90;;;;;;5016696;28;20439;-80
2022/08/16 00:48:54;;;;;;;5.13;4.20;;;17.90;99.90;;;;;;5014717;28;20456;-80
2022/08/16 00:51:22;;;;;;;5.70;4.33;;;17.90;99.90;;;;;;4998110;28;20520;-79
2022/08/16 00:53:49;;;;;;;10.67;3.87;;;17.90;99.90;;;;;;5012868;28;20427;-77
2022/08/16 00:56:18;;;;;;;7.73;4.47;;;18.00;99.90;;;;;;5010134;28;20419;-78
2022/08/16 00:58:46;;;;;;;5.40;3.63;;;18.10;99.90;;;;;;5009930;28;20427;-77
2022/08/16 01:01:13;;;;;;;6.47;3.87;;;18.10;99.90;;;;;;5009503;28;20454;-77
2022/08/16 01:03:42;;;;;;;5.97;3.83;;;18.20;99.90;;;;;;5009527;28;20507;-78
2022/08/16 01:06:11;;;;;;;3.80;3.47;;;18.30;99.90;;;;;;4975995;28;20439;-78
2022/08/16 01:08:37;;;;;;;8.43;3.80;;;18.40;99.90;;;;;;4991314;28;20416;-77
2022/08/16 01:11:04;;;;;;;4.30;3.50;;;18.40;99.90;;;;;;4991587;28;20569;-78
2022/08/16 01:13:32;;;;;;;7.93;3.73;;;18.50;99.90;;;;;;5009528;28;20507;-78
2022/08/16 01:16:17;;;;;;;3.87;3.57;;;18.50;99.90;;;;;;4991770;28;20567;-78
2022/08/16 01:18:51;;;;;;;4.53;3.87;;;18.50;99.90;;;;;;5009625;28;20428;-77
2022/08/16 01:21:45;;;;;;;4.50;4.07;;;18.40;99.90;;;;;;5009384;28;20945;-77
2022/08/16 01:24:31;;;;;;;11.40;3.90;;;18.40;99.90;;;;;;5009314;28;20492;-76
2022/08/16 01:27:05;;;;;;;8.03;3.90;;;18.40;99.90;;;;;;4991674;28;20439;-77
2022/08/16 01:29:38;;;;;;;5.80;3.77;;;18.40;99.90;;;;;;4991457;28;20492;-77
2022/08/16 01:32:04;;;;;;;4.60;3.30;;;18.50;99.90;;;;;;5009281;28;20445;-77
2022/08/16 01:34:30;;;;;;;5.40;3.70;;;18.50;99.90;;;;;;4975153;28;21127;-77
2022/08/16 01:37:07;;;;;;;3.20;3.00;;;18.40;99.90;;;;;;5009178;28;20423;-77
2022/08/16 01:39:34;;;;;;;5.20;3.57;;;18.30;99.90;;;;;;5009420;28;20871;-77
2022/08/16 01:42:00;;;;;;;6.20;3.60;;;18.20;99.90;;;;;;5009470;28;20443;-76
2022/08/16 01:44:26;;;;;;;6.50;3.87;;;18.20;99.90;;;;;;5009784;28;20462;-77
2022/08/16 01:46:55;;;;;;;6.60;4.13;;;18.10;99.90;;;;;;5009297;28;20428;-77
2022/08/16 01:49:32;;;;;;;3.60;3.27;;;18.10;99.90;;;;;;4991151;28;20497;-77
2022/08/16 01:52:11;;;;;;;4.13;3.67;;;18.00;99.90;;;;;;4975313;28;20474;-77
2022/08/16 01:54:38;;;;;;;3.77;3.40;;;18.00;99.90;;;;;;5009032;28;20466;-77
2022/08/16 01:57:05;;;;;;;4.40;4.00;;;18.00;99.90;;;;;;5008915;28;20437;-76
2022/08/16 01:59:33;;;;;;;4.40;3.87;;;18.00;99.90;;;;;;5008735;28;20467;-76
2022/08/16 02:01:59;;;;;;;7.00;4.17;;;18.00;99.90;;;;;;5008783;28;20473;-77
2022/08/16 02:04:26;;;;;;;6.57;4.13;;;17.90;99.90;;;;;;5008868;28;20475;-77
2022/08/16 02:06:52;;;;;;;5.10;3.50;;;17.90;99.90;;;;;;5008967;28;20925;-76
2022/08/16 02:09:22;;;;;;;4.30;3.80;;;18.00;99.90;;;;;;5008830;28;20429;-77
2022/08/16 02:11:51;;;;;;;14.33;3.97;;;18.00;99.90;;;;;;5008609;28;20440;-77
2022/08/16 02:14:18;;;;;;;5.37;3.87;;;18.10;99.90;;;;;;5008954;28;20455;-77
2022/08/16 02:16:43;;;;;;;4.40;3.80;;;18.00;99.90;;;;;;5008687;28;21003;-77
2022/08/16 02:19:10;;;;;;;3.97;3.57;;;18.00;99.90;;;;;;4991115;28;20513;-76
2022/08/16 02:21:37;;;;;;;7.00;3.43;;;18.00;99.90;;;;;;4994826;28;20963;-76
2022/08/16 02:24:03;;;;;;;8.80;4.10;;;18.00;99.90;;;;;;5012616;28;20498;-77
2022/08/16 02:26:29;;;;;;;5.70;4.13;;;18.00;99.90;;;;;;5012743;28;20507;-77
2022/08/16 02:28:55;;;;;;;7.67;4.73;;;17.80;99.90;;;;;;5012626;28;20949;-77
2022/08/16 02:31:21;;;;;;;6.73;4.40;;;17.70;99.90;;;;;;5012436;28;20452;-77
2022/08/16 02:33:47;;;;;;;5.20;4.53;;;17.50;99.90;;;;;;4994799;28;20183;-77
2022/08/16 02:36:14;;;;;;;7.43;4.20;;;17.50;99.90;;;;;;5012461;28;20928;-77
2022/08/16 02:38:40;;;;;;;9.27;4.57;;;17.40;99.90;;;;;;4994603;28;20822;-77
2022/08/16 02:41:07;;;;;;;6.67;4.13;;;17.30;99.90;;;;;;5012277;28;20415;-78
2022/08/16 02:43:34;;;;;;;5.97;3.80;;;17.30;99.90;;;;;;4994452;28;20426;-77
2022/08/16 02:46:01;;;;;;;4.63;4.10;;;17.20;99.90;;;;;;5012280;28;20473;-77
2022/08/16 02:48:29;;;;;;;5.03;3.43;;;17.10;99.90;;;;;;4994337;28;20449;-76
2022/08/16 02:50:56;;;;;;;4.90;4.40;;;17.00;99.90;;;;;;5012001;28;20458;-78
2022/08/16 02:53:22;;;;;;;5.13;4.63;;;16.80;99.90;;;;;;4994647;28;20415;-76
2022/08/16 02:55:48;;;;;;;9.13;4.77;;;16.80;99.90;;;;;;5012021;28;20416;-77
2022/08/16 02:58:14;;;;;;;8.10;5.00;;;16.80;99.90;;;;;;5012007;28;21255;-76
2022/08/16 03:00:39;;;;;;;10.13;5.20;;;16.70;99.90;;;;;;5011932;28;20191;-76
2022/08/16 03:03:05;;;;;;;9.67;4.40;;;16.70;99.90;;;;;;5011979;28;20703;-76
2022/08/16 03:05:31;;;;;;;9.87;5.27;;;16.80;99.90;;;;;;5011734;28;20210;-77
2022/08/16 03:07:57;;;;;;;7.63;4.30;;;16.90;99.90;;;;;;5011695;28;20188;-77
2022/08/16 03:10:23;;;;;;;5.23;4.67;;;16.90;99.90;;;;;;4977828;28;20657;-78
2022/08/16 03:12:49;;;;;;;5.70;4.77;;;17.00;99.90;;;;;;5011822;28;20458;-78
2022/08/16 03:15:17;;;;;;;8.87;5.07;;;17.00;99.90;;;;;;4977969;28;20816;-76
2022/08/16 03:17:44;;;;;;;11.20;4.67;;;17.00;99.90;;;;;;5011657;28;20923;-75
2022/08/16 03:20:13;;;;;;;8.90;5.20;;;17.00;99.90;;;;;;5011727;28;20431;-76
2022/08/16 03:22:40;;;;;;;5.73;5.00;;;17.10;99.90;;;;;;5011638;28;20455;-77
2022/08/16 03:25:08;;;;;;;6.50;5.00;;;17.00;99.90;;;;;;5011713;28;20480;-77
2022/08/16 03:27:34;;;;;;;8.00;4.87;;;17.00;99.90;;;;;;5011913;28;20889;-77
2022/08/16 03:30:13;;;;;;;6.40;4.93;;;17.00;99.90;;;;;;5011691;28;20507;-75
2022/08/16 03:32:39;;;;;;;6.77;5.27;;;17.00;99.90;;;;;;5011514;28;20291;-77
2022/08/16 03:35:06;;;;;;;6.43;5.10;;;17.10;99.90;;;;;;4993890;28;20435;-77
2022/08/16 03:37:32;;;;;;;8.70;4.67;;;17.20;99.90;;;;;;5011551;28;20883;-75
2022/08/16 03:39:58;;;;;;;8.60;4.80;;;17.30;99.90;;;;;;5011550;28;20439;-76
2022/08/16 03:42:24;;;;;;;5.03;4.17;;;17.40;99.90;;;;;;5011750;28;20438;-76
2022/08/16 03:44:50;;;;;;;7.63;4.70;;;17.40;99.90;;;;;;5011653;28;20242;-77
2022/08/16 03:47:17;;;;;;;7.87;4.67;;;17.40;99.90;;;;;;4993876;28;20184;-77
2022/08/16 03:49:43;;;;;;;6.50;4.10;;;17.40;99.90;;;;;;5011421;28;20176;-76
2022/08/16 03:52:09;;;;;;;9.23;5.13;;;17.30;99.90;;;;;;5011507;28;20443;-76
2022/08/16 03:54:35;;;;;;;4.57;4.17;;;17.30;99.90;;;;;;4993687;28;20212;-76
2022/08/16 03:57:02;;;;;;;5.70;5.10;;;17.40;99.90;;;;;;5011487;28;21296;-76
2022/08/16 03:59:30;;;;;;;8.17;4.73;;;17.50;99.90;;;;;;5012032;28;20226;-78
2022/08/16 04:01:56;;;;;;;5.13;4.53;;;17.60;99.90;;;;;;5011732;28;20864;-77
2022/08/16 04:04:22;;;;;;;6.07;4.70;;;17.70;99.90;;;;;;5011451;28;21081;-77
2022/08/16 04:06:47;;;;;;;5.50;4.40;;;17.80;99.90;;;;;;5011752;28;20423;-77
2022/08/16 04:09:13;;;;;;;9.00;4.90;;;17.80;99.90;;;;;;5011507;28;20189;-77
2022/08/16 04:11:39;;;;;;;5.77;4.53;;;18.00;99.90;;;;;;5011378;28;20201;-77
2022/08/16 04:14:04;;;;;;;6.97;4.47;;;17.80;99.90;;;;;;5010784;28;20196;-77
2022/08/16 04:16:31;;;;;;;5.30;4.77;;;17.90;99.90;;;;;;4992703;28;20254;-78
2022/08/16 04:18:57;;;;;;;10.87;5.50;;;17.90;99.90;;;;;;4992816;28;20193;-78
2022/08/16 04:21:22;;;;;;;6.43;4.80;;;17.80;99.90;;;;;;5009952;28;20869;-78
2022/08/16 04:23:48;;;;;;;8.23;4.90;;;17.80;99.90;;;;;;5009871;28;20424;-78
2022/08/16 04:26:14;;;;;;;5.50;4.80;;;17.80;99.90;;;;;;5009911;28;20299;-78
2022/08/16 04:28:40;;;;;;;8.53;5.27;;;17.80;99.90;;;;;;5009694;28;20181;-78
2022/08/16 04:31:05;;;;;;;5.23;4.73;;;17.90;99.90;;;;;;5009841;28;20715;-78
2022/08/16 04:33:31;;;;;;;9.47;5.03;;;17.90;99.90;;;;;;5009656;28;20228;-78
2022/08/16 04:35:57;;;;;;;7.40;5.00;;;18.00;99.90;;;;;;5010108;28;20600;-78
2022/08/16 04:38:23;;;;;;;6.60;4.83;;;18.00;99.90;;;;;;4991687;28;20192;-78
2022/08/16 04:40:49;;;;;;;6.73;5.30;;;18.10;99.90;;;;;;4991790;28;20424;-78
2022/08/16 04:43:14;;;;;;;6.90;4.93;;;18.00;99.90;;;;;;4990587;28;20677;-78
2022/08/16 04:45:41;;;;;;;5.87;4.80;;;18.00;99.90;;;;;;4991794;28;20243;-78
2022/08/16 04:48:09;;;;;;;7.10;5.10;;;18.10;99.90;;;;;;5009196;28;20209;-78
2022/08/16 04:50:35;;;;;;;8.70;5.30;;;18.10;99.90;;;;;;5009316;28;20989;-78
2022/08/16 04:53:01;;;;;;;8.67;4.63;;;18.10;99.90;;;;;;4991167;28;20512;-78
2022/08/16 04:55:29;;;;;;;4.90;4.50;;;18.10;99.90;;;;;;4991628;28;20541;-78
2022/08/16 04:57:55;;;;;;;6.87;5.13;;;18.00;99.90;;;;;;5009196;28;20983;-77
2022/08/16 05:00:24;;;;;;;5.97;5.30;;;18.00;99.90;;;;;;5009301;28;20427;-78
2022/08/16 05:02:54;;;;;;;10.10;5.43;;;17.90;99.90;;;;;;4991653;28;20458;-78
2022/08/16 05:05:21;;;;;;;12.10;5.63;;;17.90;99.90;;;;;;4991368;28;21336;-78
2022/08/16 05:07:47;;;;;;;5.87;5.30;;;18.00;99.90;;;;;;5009406;28;20412;-78
2022/08/16 05:10:14;;;;;;;10.13;5.00;;;17.90;99.90;;;;;;4992211;28;20423;-78
2022/08/16 05:12:39;;;;;;;8.30;5.00;;;18.00;99.90;;;;;;4991399;28;20446;-78
2022/08/16 05:15:07;;;;;;;8.83;5.30;;;18.00;99.90;;;;;;5009201;28;20780;-78
2022/08/16 05:17:33;;;;;;;8.80;4.93;;;18.00;99.90;;;;;;5008852;28;20181;-78
2022/08/16 05:19:59;;;;;;;6.70;5.73;;;18.00;99.90;;;;;;4991366;28;20435;-78
2022/08/16 05:22:25;;;;;;;7.23;4.47;;;18.00;99.90;;;;;;5009068;28;20526;-78
2022/08/16 05:24:52;;;;;;;7.97;5.47;;;18.00;99.90;;;;;;5009236;28;20214;-78
2022/08/16 05:27:18;;;;;;;5.70;5.13;;;18.00;99.90;;;;;;4991394;28;20427;-78
2022/08/16 05:29:43;;;;;;;7.53;4.73;;;18.00;99.90;;;;;;5009365;28;20450;-78
2022/08/16 05:32:09;;;;;;;5.30;4.80;;;18.10;99.90;;;;;;5009299;28;20695;-78
2022/08/16 05:34:35;;;;;;;6.07;5.50;;;18.20;99.90;;;;;;4991865;28;20186;-78
2022/08/16 05:37:01;;;;;;;9.80;6.07;;;18.20;99.90;;;;;;5009306;28;20187;-78
2022/08/16 05:39:27;;;;;;;8.10;5.77;;;18.20;99.90;;;;;;5009264;28;20418;-78
2022/08/16 05:41:54;;;;;;;6.37;5.50;;;18.20;99.90;;;;;;5009115;28;20216;-78
2022/08/16 05:44:22;;;;;;;11.80;5.87;;;18.20;99.90;;;;;;4991706;28;20577;-78
2022/08/16 05:46:48;;;;;;;6.53;5.43;;;18.40;99.90;;;;;;5009220;28;20470;-78
2022/08/16 05:49:15;;;;;;;6.80;5.13;;;18.60;99.90;;;;;;4975405;28;20427;-78
2022/08/16 05:51:45;;;;;;;10.23;5.20;;;18.80;99.90;;;;;;5009079;28;20440;-78
2022/08/16 05:54:13;;;;;;;8.57;4.90;;;18.90;99.90;;;;;;5008913;28;20425;-78
2022/08/16 05:56:40;;;;;;;5.70;5.10;;;19.10;99.90;;;;;;5009057;28;20515;-78
2022/08/16 05:59:06;;;;;;;7.27;5.20;;;19.20;99.90;;;;;;5008773;28;20462;-78
2022/08/16 06:01:33;;;;;;;5.10;4.60;;;19.30;99.90;;;;;;4991065;28;20460;-78
2022/08/16 06:03:59;;;;;;;5.67;4.23;;;19.50;99.90;;;;;;5008869;28;20436;-78
2022/08/16 06:06:25;;;;;;;9.80;4.40;;;19.60;99.90;;;;;;4975190;28;20426;-78
2022/08/16 06:08:50;;;;;;;6.53;4.90;;;19.70;99.90;;;;;;4991311;28;20185;-78
2022/08/16 06:11:16;;;;;;;7.70;4.40;;;19.70;99.90;;;;;;4991150;28;20197;-78
2022/08/16 06:13:42;;;;;;;6.67;5.77;;;19.60;99.90;;;;;;5008812;28;20184;-78
2022/08/16 06:16:08;;;;;;;6.07;5.17;;;19.70;99.90;;;;;;5008697;28;20263;-78
2022/08/16 06:18:34;;;;;;;7.30;4.87;;;19.80;99.90;;;;;;5008436;28;20424;-78
2022/08/16 06:20:59;;;;;;;5.63;5.03;;;19.80;99.90;;;;;;4990711;28;20443;-78
2022/08/16 06:23:25;;;;;;;5.57;5.07;;;19.90;99.90;;;;;;5008336;28;20215;-78
2022/08/16 06:25:52;;;;;;;7.37;4.80;;;20.00;99.90;;;;;;4974355;28;20221;-78
2022/08/16 06:28:18;;;;;;;6.07;4.70;;;20.20;99.90;;;;;;5008188;28;20183;-78
2022/08/16 06:30:45;;;;;;;11.47;5.60;;;20.20;99.90;;;;;;4990394;28;20447;-78
2022/08/16 06:33:12;;;;;;;7.87;5.47;;;20.30;99.90;;;;;;5008090;28;20443;-78
2022/08/16 06:35:38;;;;;;;6.30;4.43;;;20.40;99.90;;;;;;4990462;28;21226;-78
2022/08/16 06:38:03;;;;;;;5.27;4.30;;;20.50;99.90;;;;;;5007692;28;20423;-78
2022/08/16 06:40:30;;;;;;;7.17;4.60;;;20.70;99.90;;;;;;5007446;28;20753;-78
2022/08/16 06:42:55;;;;;;;4.50;4.10;;;20.80;99.90;;;;;;4973400;28;20782;-78
2022/08/16 06:45:22;;;;;;;5.30;4.57;;;21.00;99.90;;;;;;5007071;28;20463;-78
2022/08/16 06:47:48;;;;;;;8.00;4.97;;;21.30;99.90;;;;;;5007310;28;20184;-78
2022/08/16 06:50:14;;;;;;;10.10;4.57;;;21.40;99.90;;;;;;4989272;28;20428;-78
2022/08/16 06:52:40;;;;;;;6.27;4.27;;;21.60;99.90;;;;;;4989721;28;20444;-78
2022/08/16 06:55:07;;;;;;;5.30;4.50;;;21.60;99.90;;;;;;5007643;28;20185;-78
2022/08/16 06:57:33;;;;;;;12.70;4.87;;;21.70;99.90;;;;;;5007100;28;20701;-78
2022/08/16 06:59:59;;;;;;;5.37;4.63;;;21.70;99.90;;;;;;5007246;28;20451;-78
2022/08/16 07:02:24;;;;;;;10.37;4.30;;;21.70;99.90;;;;;;5006965;28;20464;-78
2022/08/16 07:04:51;;;;;;;12.10;4.50;;;21.80;99.90;;;;;;4989173;28;20228;-78
2022/08/16 07:07:19;;;;;;;11.43;4.50;;;21.80;99.90;;;;;;5009727;28;20178;-78
2022/08/16 07:09:46;;;;;;;6.17;4.37;;;21.70;99.90;;;;;;5010667;28;20944;-78
2022/08/16 07:12:12;;;;;;;5.13;4.67;;;21.80;99.90;;;;;;4992904;28;20444;-78
2022/08/16 07:14:38;;;;;;;10.03;5.23;;;21.70;99.90;;;;;;5010185;28;20429;-78
2022/08/16 07:17:04;;;;;;;12.10;4.60;;;21.70;99.90;;;;;;5010490;28;20432;-78
2022/08/16 07:19:33;;;;;;;10.97;4.40;;;21.70;99.90;;;;;;4992695;28;20186;-78
2022/08/16 07:22:01;;;;;;;8.53;5.00;;;21.70;99.90;;;;;;4992580;28;20821;-78
2022/08/16 07:24:28;;;;;;;7.60;4.63;;;21.80;99.90;;;;;;4992922;28;20465;-78
2022/08/16 07:26:54;;;;;;;4.90;4.50;;;21.70;99.90;;;;;;5010364;28;20520;-78
2022/08/16 07:29:20;;;;;;;9.17;4.93;;;21.80;99.90;;;;;;4992943;28;20425;-78
2022/08/16 07:31:45;;;;;;;14.43;4.27;;;21.80;99.90;;;;;;5010677;28;20518;-78
2022/08/16 07:34:11;;;;;;;6.37;5.23;;;21.80;99.90;;;;;;5011227;28;20653;-78
2022/08/16 07:36:37;;;;;;;4.53;4.13;;;21.90;99.90;;;;;;4994556;28;20188;-78
2022/08/16 07:39:03;;;;;;;4.97;4.10;;;21.90;99.90;;;;;;5012142;28;20269;-78
2022/08/16 07:41:29;;;;;;;6.53;5.03;;;22.00;99.90;;;;;;5012573;28;20295;-78
2022/08/16 07:43:55;;;;;;;6.30;4.63;;;22.00;99.90;;;;;;5012607;28;20433;-78
2022/08/16 07:46:20;;;;;;;6.83;4.73;;;22.00;99.90;;;;;;4994530;28;20975;-78
2022/08/16 07:48:46;;;;;;;5.60;3.93;;;22.00;99.90;;;;;;4993710;28;20433;-78
2022/08/16 07:51:12;;;;;;;8.70;5.53;;;22.00;99.90;;;;;;5011902;28;20205;-78
2022/08/16 07:53:37;;;;;;;9.53;6.20;;;22.00;99.90;;;;;;4993129;28;20190;-78
2022/08/16 07:56:04;;;;;;;10.97;5.87;;;21.90;99.90;;;;;;5010867;28;20197;-78
2022/08/16 07:58:29;;;;;;;5.33;4.83;;;22.00;99.90;;;;;;4993005;28;20189;-78
2022/08/16 08:00:55;;;;;;;12.20;5.13;;;22.10;99.90;;;;;;5009597;28;20437;-78
2022/08/16 08:03:21;;;;;;;7.73;5.20;;;22.20;99.90;;;;;;4992348;28;20205;-78
2022/08/16 08:05:47;;;;;;;8.00;5.70;;;22.30;99.90;;;;;;4991855;28;20319;-78
2022/08/16 08:08:12;;;;;;;9.33;5.20;;;22.30;99.90;;;;;;5009598;28;20681;-78
2022/08/16 08:10:38;;;;;;;7.33;5.33;;;22.40;99.90;;;;;;5009687;28;20183;-78
2022/08/16 08:13:04;;;;;;;10.13;5.30;;;22.40;99.90;;;;;;4991290;28;20209;-78
2022/08/16 08:15:30;;;;;;;9.67;5.43;;;22.60;99.90;;;;;;5009086;28;20418;-78
2022/08/16 08:17:56;;;;;;;15.50;6.13;;;22.50;99.90;;;;;;4991535;28;20739;-78
2022/08/16 08:20:25;;;;;;;6.87;5.33;;;22.70;99.90;;;;;;5009013;28;20188;-78
2022/08/16 08:22:52;;;;;;;7.87;5.70;;;22.80;99.90;;;;;;5009107;28;20490;-78
2022/08/16 08:25:19;;;;;;;7.20;5.57;;;22.70;99.90;;;;;;4991265;28;20457;-78
2022/08/16 08:27:45;;;;;;;6.43;5.00;;;22.60;99.90;;;;;;4991737;28;20415;-78
2022/08/16 08:30:11;;;;;;;8.50;5.40;;;22.70;99.90;;;;;;4975868;28;20827;-78
2022/08/16 08:32:37;;;;;;;9.30;4.80;;;22.90;99.90;;;;;;5009668;28;20442;-78
2022/08/16 08:35:07;;;;;;;6.03;4.97;;;23.10;99.90;;;;;;5009997;28;20422;-78
2022/08/16 08:37:34;;;;;;;11.13;4.50;;;23.20;99.90;;;;;;5009719;28;20188;-78
2022/08/16 08:40:01;;;;;;;17.77;5.20;;;23.40;99.90;;;;;;4975706;28;20461;-78
2022/08/16 08:42:27;;;;;;;8.10;4.57;;;23.40;99.90;;;;;;4992105;28;20861;-78
2022/08/16 08:44:53;;;;;;;8.43;4.40;;;23.60;99.90;;;;;;4992417;28;20543;-79
2022/08/16 08:47:19;;;;;;;9.80;4.50;;;23.80;99.90;;;;;;4992212;28;20454;-79
2022/08/16 08:49:46;;;;;;;8.83;4.80;;;24.00;99.90;;;;;;5009864;28;20455;-79
2022/08/16 08:52:11;;;;;;;8.57;5.07;;;24.30;99.90;;;;;;4991973;28;20450;-79
2022/08/16 08:54:37;;;;;;;8.00;4.50;;;24.30;99.50;;;;;;4991773;28;20434;-78
2022/08/16 08:57:04;;;;;;;4.90;4.40;;;24.40;99.90;;;;;;4991867;28;20195;-78
2022/08/16 08:59:30;;;;;;;10.73;4.70;;;24.50;98.70;;;;;;5010319;28;20188;-79
2022/08/16 09:01:56;;;;;;;8.60;4.80;;;24.70;99.60;;;;;;5009828;28;20979;-78
2022/08/16 09:04:22;;;;;;;5.33;4.67;;;24.80;96.60;;;;;;5009323;28;20508;-79
2022/08/16 09:06:48;;;;;;;6.37;5.13;;;24.70;97.60;;;;;;5009762;28;20522;-78
2022/08/16 09:09:13;;;;;;;4.77;4.37;;;25.00;97.00;;;;;;4992747;28;20215;-79
2022/08/16 09:11:43;;;;;;;11.00;5.17;;;25.10;96.90;;;;;;4978511;28;20596;-79
2022/08/16 09:14:09;;;;;;;11.63;5.17;;;25.40;96.20;;;;;;5011636;28;20204;-79
2022/08/16 09:16:34;;;;;;;8.07;4.40;;;25.60;95.20;;;;;;4994440;28;20418;-79
2022/08/16 09:19:00;;;;;;;10.70;4.30;;;26.00;95.60;;;;;;4995601;28;20267;-78
2022/08/16 09:21:27;;;;;;;4.83;3.80;;;26.00;93.50;;;;;;5013072;28;20200;-79
2022/08/16 09:23:53;;;;;;;5.57;3.67;;;26.30;93.10;;;;;;5012653;28;20423;-79
2022/08/16 09:26:20;;;;;;;6.77;3.63;;;26.60;92.20;;;;;;4992208;28;20551;-79
2022/08/16 09:28:45;;;;;;;6.70;4.50;;;26.90;91.30;;;;;;4992367;28;20438;-79
2022/08/16 09:31:13;;;;;;;5.37;3.80;;;27.30;90.60;;;;;;4991979;28;20914;-78
2022/08/16 09:33:40;;;;;;;7.63;4.23;;;27.60;88.50;;;;;;5009454;28;20178;-78
2022/08/16 09:36:07;;;;;;;10.47;4.37;;;27.60;86.80;;;;;;5010317;28;20450;-79
2022/08/16 09:38:34;;;;;;;9.63;4.53;;;26.90;86.90;;;;;;5010226;28;20454;-79
2022/08/16 09:41:02;;;;;;;9.87;4.43;;;26.50;90.60;;;;;;5009723;28;20428;-79
2022/08/16 09:43:29;;;;;;;6.57;3.80;;;27.00;90.70;;;;;;4992755;28;21082;-79
2022/08/16 09:45:54;;;;;;;7.80;3.87;;;27.60;85.70;;;;;;4992380;28;20475;-79
2022/08/16 09:48:20;;;;;;;5.10;3.30;;;28.10;84.90;;;;;;5009987;28;20416;-79
2022/08/16 09:50:45;;;;;;;3.53;3.23;;;28.80;81.80;;;;;;5011185;28;20181;-79
2022/08/16 09:53:18;;;;;;;5.83;3.17;;;28.50;80.80;;;;;;4976549;28;20216;-79
2022/08/16 09:55:46;;;;;;;5.70;3.50;;;28.80;78.70;;;;;;4992649;28;20201;-79
2022/08/16 09:58:13;;;;;;;10.57;3.80;;;29.30;77.70;;;;;;5010455;28;20928;-79
2022/08/16 10:00:38;;;;;;;7.20;4.37;;;29.50;76.10;;;;;;5011011;28;21070;-79
2022/08/16 10:03:04;;;;;;;5.83;3.37;;;29.70;74.70;;;;;;5010748;28;20595;-79
2022/08/16 10:05:31;;;;;;;6.30;3.30;;;30.00;74.30;;;;;;5011113;28;20229;-79
2022/08/16 10:07:58;;;;;;;3.93;3.63;;;30.10;72.60;;;;;;5010575;28;20415;-79
2022/08/16 10:10:24;;;;;;;4.07;3.17;;;30.40;71.30;;;;;;5011257;28;20922;-79
2022/08/16 10:15:35;;;;;;;6.63;3.83;;;30.30;71.60;;;;;;4996171;28;20451;-79
2022/08/16 10:18:06;;;;;;;4.30;3.57;;;30.50;73.70;;;;;;4977709;28;20526;-79
2022/08/16 10:20:34;;;;;;;6.13;4.13;;;30.60;72.40;;;;;;5010908;28;20433;-79
2022/08/16 10:23:00;;;;;;;3.97;3.63;;;30.60;69.30;;;;;;4992664;28;20444;-79
2022/08/16 10:25:25;;;;;;;6.30;4.30;;;30.70;69.60;;;;;;4992455;28;20835;-79
2022/08/16 10:27:51;;;;;;;5.47;3.20;;;30.80;67.90;;;;;;5009723;28;20423;-79
2022/08/16 10:30:17;;;;;;;5.70;3.83;;;30.90;68.20;;;;;;4991229;28;20185;-79
2022/08/16 10:32:43;;;;;;;4.37;3.33;;;31.20;68.80;;;;;;5010266;28;20271;-79
2022/08/16 10:35:09;;;;;;;9.90;3.67;;;31.70;68.60;;;;;;5001132;28;20685;-79
2022/08/16 10:37:35;;;;;;;6.07;3.43;;;31.40;66.70;;;;;;4998789;28;20431;-79
2022/08/16 10:40:00;;;;;;;7.10;3.73;;;30.90;65.90;;;;;;4983404;28;20216;-79
2022/08/16 10:42:27;;;;;;;4.57;3.50;;;30.60;68.00;;;;;;5019816;28;20208;-79
2022/08/16 10:44:52;;;;;;;5.33;3.27;;;30.70;66.40;;;;;;5020969;28;20212;-79
2022/08/16 10:47:18;;;;;;;8.93;3.50;;;30.70;65.10;;;;;;5018672;28;20453;-79
2022/08/16 10:49:44;;;;;;;6.23;3.60;;;30.80;66.50;;;;;;4983669;28;20280;-79
2022/08/16 10:52:09;;;;;;;4.27;3.17;;;31.00;65.40;;;;;;5002183;28;20534;-79
2022/08/16 10:54:35;;;;;;;4.57;3.50;;;31.60;65.40;;;;;;5002187;28;20185;-79
2022/08/16 10:57:03;;;;;;;5.37;3.83;;;31.80;64.50;;;;;;5000721;28;20211;-79
2022/08/16 10:59:32;;;;;;;4.10;3.80;;;31.50;63.50;;;;;;5019456;28;20562;-79
2022/08/16 11:01:58;;;;;;;4.73;3.40;;;31.70;63.60;;;;;;5019698;28;20478;-79
2022/08/16 11:04:25;;;;;;;5.33;2.97;;;31.70;62.80;;;;;;5020710;28;20469;-79
2022/08/16 11:06:51;;;;;;;3.20;2.90;;;32.00;63.70;;;;;;5003111;28;20420;-79
2022/08/16 11:09:17;;;;;;;3.77;3.17;;;32.10;63.60;;;;;;5019653;28;20416;-79
2022/08/16 11:11:43;;;;;;;3.47;3.17;;;32.00;62.10;;;;;;5019575;28;20937;-79
2022/08/16 11:14:08;;;;;;;5.60;3.60;;;32.20;63.20;;;;;;5002321;28;20183;-79
2022/08/16 11:16:34;;;;;;;6.93;3.80;;;32.00;59.80;;;;;;5021498;28;20192;-79
2022/08/16 11:19:02;;;;;;;3.70;3.40;;;31.80;59.80;;;;;;5020272;28;20173;-79
2022/08/16 11:21:28;;;;;;;5.27;3.70;;;32.40;61.60;;;;;;5001546;28;20440;-79
2022/08/16 11:23:55;;;;;;;4.40;3.30;;;32.20;59.40;;;;;;5020033;28;20424;-79
2022/08/16 11:26:21;;;;;;;8.73;3.87;;;32.60;60.90;;;;;;5019145;28;20484;-79
2022/08/16 11:28:49;;;;;;;5.60;3.87;;;32.60;58.60;;;;;;5018057;28;20431;-79
2022/08/16 11:31:15;;;;;;;4.93;3.50;;;32.50;59.50;;;;;;5017073;28;20599;-79
2022/08/16 11:33:41;;;;;;;3.17;2.87;;;32.50;59.60;;;;;;5017609;28;20432;-79
2022/08/16 11:36:07;;;;;;;5.53;3.47;;;32.70;59.10;;;;;;4999822;28;20434;-79
2022/08/16 11:38:33;;;;;;;4.80;2.93;;;32.40;58.80;;;;;;5001057;28;20195;-79
2022/08/16 11:41:00;;;;;;;5.27;3.30;;;32.70;57.90;;;;;;5018488;28;20181;-79
2022/08/16 11:43:35;;;;;;;4.30;3.10;;;32.70;56.80;;;;;;5017464;28;21087;-79
2022/08/16 11:46:06;;;;;;;4.20;3.00;;;32.70;56.80;;;;;;4999260;28;20475;-79
2022/08/16 11:48:33;;;;;;;3.70;3.10;;;32.90;58.20;;;;;;4999684;28;20466;-79
2022/08/16 11:50:59;;;;;;;3.33;3.03;;;33.10;57.80;;;;;;5017039;28;20420;-79
2022/08/16 11:53:27;;;;;;;4.53;3.23;;;33.20;56.90;;;;;;5016545;28;20523;-79
2022/08/16 11:55:53;;;;;;;3.33;3.00;;;32.90;57.60;;;;;;5017993;28;20508;-79
2022/08/16 11:58:19;;;;;;;3.97;3.13;;;33.00;56.30;;;;;;5017147;28;20427;-79
2022/08/16 12:00:45;;;;;;;3.60;3.30;;;32.70;53.60;;;;;;5016953;28;20444;-79
2022/08/16 12:03:12;;;;;;;5.90;3.23;;;32.20;54.70;;;;;;5015193;28;21068;-79
2022/08/16 12:05:39;;;;;;;3.10;2.80;;;32.40;56.10;;;;;;5015464;28;21014;-79
2022/08/16 12:08:06;;;;;;;4.60;3.10;;;32.50;54.10;;;;;;5014005;28;21016;-79
2022/08/16 12:10:33;;;;;;;3.20;2.87;;;32.90;56.30;;;;;;4995186;28;20424;-79
2022/08/16 12:12:59;;;;;;;6.00;2.87;;;33.10;55.50;;;;;;5012164;28;20447;-79
2022/08/16 12:15:25;;;;;;;3.57;3.27;;;33.20;54.90;;;;;;5011677;28;20730;-79
2022/08/16 12:17:55;;;;;;;6.37;2.90;;;33.10;54.70;;;;;;5010635;28;20421;-79
2022/08/16 12:20:25;;;;;;;3.20;3.00;;;32.40;54.40;;;;;;5010901;28;20427;-79
2022/08/16 12:22:54;;;;;;;5.77;3.13;;;32.20;55.00;;;;;;5000880;28;20448;-79
2022/08/16 12:25:23;;;;;;;3.33;2.50;;;32.50;55.50;;;;;;5018703;28;20506;-79
2022/08/16 12:27:50;;;;;;;3.23;2.73;;;32.90;54.60;;;;;;5018208;28;20426;-79
2022/08/16 12:30:20;;;;;;;3.47;3.17;;;33.20;55.60;;;;;;5000167;28;20833;-79
2022/08/16 12:32:46;;;;;;;2.83;2.63;;;33.30;53.30;;;;;;5000415;28;20448;-79
2022/08/16 12:35:16;;;;;;;2.80;2.60;;;33.30;53.40;;;;;;5000027;28;20454;-79
2022/08/16 12:37:43;;;;;;;12.10;3.10;;;33.40;53.10;;;;;;5017770;28;20609;-79
2022/08/16 12:40:11;;;;;;;4.47;3.20;;;33.50;52.60;;;;;;5017430;28;20428;-79
2022/08/16 12:42:37;;;;;;;3.23;2.83;;;33.40;52.30;;;;;;5018023;28;20448;-79
2022/08/16 12:45:05;;;;;;;3.10;2.90;;;33.60;52.40;;;;;;4999543;28;20468;-79
2022/08/16 12:50:15;;;;;;;4.77;3.20;;;33.30;51.60;;;;;;5003881;28;20751;-79